sensor_id;sensor_type;location;lat;lon;timestamp;P1;durP1;ratioP1;P2;durP2;ratioP2
33824;SDS011;20127;48.962;8.342;2024-02-14T00:00:25;3.72;;;3.20;;
33824;SDS011;20127;48.962;8.342;2024-02-14T00:01:39;6.72;;;2.92;;
33824;SDS011;20127;48.962;8.342;2024-02-14T00:02:53;6.07;;;4.40;;
33824;SDS011;20127;48.962;8.342;2024-02-14T00:04:07;5.38;;;3.05;;
33824;SDS011;20127;48.962;8.342;2024-02-14T00:05:20;7.00;;;3.70;;
33824;SDS011;20127;48.962;8.342;2024-02-14T00:06:36;4.90;;;4.00;;
33824;SDS011;20127;48.962;8.342;2024-02-14T00:07:49;8.45;;;2.72;;
33824;SDS011;20127;48.962;8.342;2024-02-14T00:09:04;3.05;;;2.67;;
33824;SDS011;20127;48.962;8.342;2024-02-14T00:10:17;5.13;;;2.80;;
33824;SDS011;20127;48.962;8.342;2024-02-14T00:11:32;4.20;;;3.05;;
33824;SDS011;20127;48.962;8.342;2024-02-14T00:12:45;7.95;;;2.78;;
33824;SDS011;20127;48.962;8.342;2024-02-14T00:14:01;3.42;;;2.58;;
33824;SDS011;20127;48.962;8.342;2024-02-14T00:15:16;4.35;;;3.03;;
33824;SDS011;20127;48.962;8.342;2024-02-14T00:16:31;6.13;;;2.80;;
33824;SDS011;20127;48.962;8.342;2024-02-14T00:17:45;4.50;;;3.00;;
33824;SDS011;20127;48.962;8.342;2024-02-14T00:18:59;3.72;;;3.38;;
33824;SDS011;20127;48.962;8.342;2024-02-14T00:20:13;8.50;;;3.00;;
33824;SDS011;20127;48.962;8.342;2024-02-14T00:21:27;3.47;;;3.15;;
33824;SDS011;20127;48.962;8.342;2024-02-14T00:22:41;5.57;;;3.92;;
33824;SDS011;20127;48.962;8.342;2024-02-14T00:23:55;4.90;;;3.08;;
33824;SDS011;20127;48.962;8.342;2024-02-14T00:25:11;4.57;;;2.80;;
33824;SDS011;20127;48.962;8.342;2024-02-14T00:26:25;9.98;;;3.97;;
33824;SDS011;20127;48.962;8.342;2024-02-14T00:27:39;5.97;;;3.65;;
33824;SDS011;20127;48.962;8.342;2024-02-14T00:28:55;5.72;;;3.55;;
33824;SDS011;20127;48.962;8.342;2024-02-14T00:30:09;3.03;;;2.38;;
33824;SDS011;20127;48.962;8.342;2024-02-14T00:31:25;7.45;;;5.78;;
33824;SDS011;20127;48.962;8.342;2024-02-14T00:32:38;9.02;;;3.88;;
33824;SDS011;20127;48.962;8.342;2024-02-14T00:33:53;6.53;;;3.70;;
33824;SDS011;20127;48.962;8.342;2024-02-14T00:35:06;5.15;;;3.58;;
33824;SDS011;20127;48.962;8.342;2024-02-14T00:36:21;5.45;;;3.80;;
33824;SDS011;20127;48.962;8.342;2024-02-14T00:37:35;5.13;;;3.70;;
33824;SDS011;20127;48.962;8.342;2024-02-14T00:38:49;6.10;;;3.88;;
33824;SDS011;20127;48.962;8.342;2024-02-14T00:40:03;3.70;;;3.17;;
33824;SDS011;20127;48.962;8.342;2024-02-14T00:41:18;8.00;;;3.90;;
33824;SDS011;20127;48.962;8.342;2024-02-14T00:42:32;7.65;;;3.45;;
33824;SDS011;20127;48.962;8.342;2024-02-14T00:43:46;6.40;;;3.75;;
33824;SDS011;20127;48.962;8.342;2024-02-14T00:45:00;3.47;;;3.17;;
33824;SDS011;20127;48.962;8.342;2024-02-14T00:46:16;7.13;;;3.83;;
33824;SDS011;20127;48.962;8.342;2024-02-14T00:47:33;5.50;;;3.83;;
33824;SDS011;20127;48.962;8.342;2024-02-14T00:48:47;5.38;;;3.47;;
33824;SDS011;20127;48.962;8.342;2024-02-14T00:50:01;7.60;;;3.90;;
33824;SDS011;20127;48.962;8.342;2024-02-14T00:51:16;6.13;;;3.80;;
33824;SDS011;20127;48.962;8.342;2024-02-14T00:52:29;4.55;;;3.72;;
33824;SDS011;20127;48.962;8.342;2024-02-14T00:53:44;6.78;;;4.55;;
33824;SDS011;20127;48.962;8.342;2024-02-14T00:54:57;4.63;;;4.00;;
33824;SDS011;20127;48.962;8.342;2024-02-14T00:56:11;5.63;;;3.80;;
33824;SDS011;20127;48.962;8.342;2024-02-14T00:57:25;6.28;;;3.80;;
33824;SDS011;20127;48.962;8.342;2024-02-14T00:58:39;6.93;;;5.13;;
33824;SDS011;20127;48.962;8.342;2024-02-14T00:59:53;13.05;;;3.85;;
33824;SDS011;20127;48.962;8.342;2024-02-14T01:01:09;6.72;;;3.95;;
33824;SDS011;20127;48.962;8.342;2024-02-14T01:02:23;7.85;;;4.47;;
33824;SDS011;20127;48.962;8.342;2024-02-14T01:03:40;8.68;;;4.72;;
33824;SDS011;20127;48.962;8.342;2024-02-14T01:04:54;7.28;;;4.03;;
33824;SDS011;20127;48.962;8.342;2024-02-14T01:06:08;5.78;;;4.00;;
33824;SDS011;20127;48.962;8.342;2024-02-14T01:07:21;5.63;;;4.28;;
33824;SDS011;20127;48.962;8.342;2024-02-14T01:08:36;5.97;;;4.45;;
33824;SDS011;20127;48.962;8.342;2024-02-14T01:09:50;4.57;;;3.72;;
33824;SDS011;20127;48.962;8.342;2024-02-14T01:11:05;12.68;;;3.92;;
33824;SDS011;20127;48.962;8.342;2024-02-14T01:12:18;6.40;;;3.15;;
33824;SDS011;20127;48.962;8.342;2024-02-14T01:13:33;5.20;;;3.17;;
33824;SDS011;20127;48.962;8.342;2024-02-14T01:14:46;5.30;;;3.38;;
33824;SDS011;20127;48.962;8.342;2024-02-14T01:16:01;7.68;;;3.88;;
33824;SDS011;20127;48.962;8.342;2024-02-14T01:17:15;6.78;;;3.55;;
33824;SDS011;20127;48.962;8.342;2024-02-14T01:18:29;5.13;;;3.47;;
33824;SDS011;20127;48.962;8.342;2024-02-14T01:19:44;8.27;;;3.53;;
33824;SDS011;20127;48.962;8.342;2024-02-14T01:20:59;8.98;;;4.30;;
33824;SDS011;20127;48.962;8.342;2024-02-14T01:22:13;8.38;;;4.95;;
33824;SDS011;20127;48.962;8.342;2024-02-14T01:23:29;9.90;;;3.50;;
33824;SDS011;20127;48.962;8.342;2024-02-14T01:24:42;6.10;;;3.80;;
33824;SDS011;20127;48.962;8.342;2024-02-14T01:25:58;7.28;;;3.80;;
33824;SDS011;20127;48.962;8.342;2024-02-14T01:27:11;6.95;;;3.75;;
33824;SDS011;20127;48.962;8.342;2024-02-14T01:28:25;4.55;;;3.20;;
33824;SDS011;20127;48.962;8.342;2024-02-14T01:29:39;5.50;;;2.90;;
33824;SDS011;20127;48.962;8.342;2024-02-14T01:30:53;5.65;;;4.00;;
33824;SDS011;20127;48.962;8.342;2024-02-14T01:32:07;5.85;;;3.25;;
33824;SDS011;20127;48.962;8.342;2024-02-14T01:33:22;6.95;;;3.30;;
33824;SDS011;20127;48.962;8.342;2024-02-14T01:34:36;9.27;;;3.40;;
33824;SDS011;20127;48.962;8.342;2024-02-14T01:35:51;8.32;;;4.07;;
33824;SDS011;20127;48.962;8.342;2024-02-14T01:37:05;9.30;;;5.10;;
33824;SDS011;20127;48.962;8.342;2024-02-14T01:38:20;14.80;;;4.15;;
33824;SDS011;20127;48.962;8.342;2024-02-14T01:39:33;4.75;;;4.20;;
33824;SDS011;20127;48.962;8.342;2024-02-14T01:40:48;6.35;;;3.70;;
33824;SDS011;20127;48.962;8.342;2024-02-14T01:42:01;6.97;;;4.95;;
33824;SDS011;20127;48.962;8.342;2024-02-14T01:43:19;9.90;;;3.97;;
33824;SDS011;20127;48.962;8.342;2024-02-14T01:44:33;9.43;;;4.03;;
33824;SDS011;20127;48.962;8.342;2024-02-14T01:45:49;5.65;;;4.28;;
33824;SDS011;20127;48.962;8.342;2024-02-14T01:47:03;7.30;;;3.75;;
33824;SDS011;20127;48.962;8.342;2024-02-14T01:48:19;10.65;;;4.30;;
33824;SDS011;20127;48.962;8.342;2024-02-14T01:49:33;8.02;;;3.58;;
33824;SDS011;20127;48.962;8.342;2024-02-14T01:50:49;5.90;;;4.07;;
33824;SDS011;20127;48.962;8.342;2024-02-14T01:52:05;7.78;;;3.67;;
33824;SDS011;20127;48.962;8.342;2024-02-14T01:53:20;5.55;;;4.45;;
33824;SDS011;20127;48.962;8.342;2024-02-14T01:54:34;5.80;;;3.65;;
33824;SDS011;20127;48.962;8.342;2024-02-14T01:55:49;8.15;;;4.25;;
33824;SDS011;20127;48.962;8.342;2024-02-14T01:57:02;5.93;;;4.38;;
33824;SDS011;20127;48.962;8.342;2024-02-14T01:58:18;7.40;;;4.88;;
33824;SDS011;20127;48.962;8.342;2024-02-14T01:59:32;6.85;;;3.90;;
33824;SDS011;20127;48.962;8.342;2024-02-14T02:00:47;7.57;;;5.93;;
33824;SDS011;20127;48.962;8.342;2024-02-14T02:02:02;4.20;;;3.80;;
33824;SDS011;20127;48.962;8.342;2024-02-14T02:03:17;5.38;;;3.35;;
33824;SDS011;20127;48.962;8.342;2024-02-14T02:04:30;3.53;;;3.22;;
33824;SDS011;20127;48.962;8.342;2024-02-14T02:05:45;5.50;;;4.10;;
33824;SDS011;20127;48.962;8.342;2024-02-14T02:06:58;8.38;;;5.50;;
33824;SDS011;20127;48.962;8.342;2024-02-14T02:08:14;12.20;;;5.60;;
33824;SDS011;20127;48.962;8.342;2024-02-14T02:09:28;9.57;;;4.53;;
33824;SDS011;20127;48.962;8.342;2024-02-14T02:10:44;4.78;;;4.00;;
33824;SDS011;20127;48.962;8.342;2024-02-14T02:11:57;4.93;;;3.90;;
33824;SDS011;20127;48.962;8.342;2024-02-14T02:13:13;6.63;;;4.13;;
33824;SDS011;20127;48.962;8.342;2024-02-14T02:14:28;5.95;;;4.00;;
33824;SDS011;20127;48.962;8.342;2024-02-14T02:15:42;5.47;;;4.53;;
33824;SDS011;20127;48.962;8.342;2024-02-14T02:16:57;10.65;;;5.70;;
33824;SDS011;20127;48.962;8.342;2024-02-14T02:18:12;8.50;;;4.93;;
33824;SDS011;20127;48.962;8.342;2024-02-14T02:19:26;11.25;;;5.13;;
33824;SDS011;20127;48.962;8.342;2024-02-14T02:20:40;6.10;;;4.18;;
33824;SDS011;20127;48.962;8.342;2024-02-14T02:21:55;4.90;;;4.10;;
33824;SDS011;20127;48.962;8.342;2024-02-14T02:23:11;6.10;;;5.00;;
33824;SDS011;20127;48.962;8.342;2024-02-14T02:24:27;8.95;;;4.50;;
33824;SDS011;20127;48.962;8.342;2024-02-14T02:25:42;6.38;;;4.63;;
33824;SDS011;20127;48.962;8.342;2024-02-14T02:26:55;6.15;;;4.50;;
33824;SDS011;20127;48.962;8.342;2024-02-14T02:28:10;5.65;;;3.60;;
33824;SDS011;20127;48.962;8.342;2024-02-14T02:29:23;5.93;;;3.53;;
33824;SDS011;20127;48.962;8.342;2024-02-14T02:30:38;6.70;;;3.63;;
33824;SDS011;20127;48.962;8.342;2024-02-14T02:31:51;7.38;;;4.25;;
33824;SDS011;20127;48.962;8.342;2024-02-14T02:33:06;10.73;;;5.07;;
33824;SDS011;20127;48.962;8.342;2024-02-14T02:34:20;5.03;;;3.92;;
33824;SDS011;20127;48.962;8.342;2024-02-14T02:35:34;6.05;;;3.78;;
33824;SDS011;20127;48.962;8.342;2024-02-14T02:36:48;5.88;;;4.18;;
33824;SDS011;20127;48.962;8.342;2024-02-14T02:38:03;4.70;;;3.88;;
33824;SDS011;20127;48.962;8.342;2024-02-14T02:39:18;7.53;;;4.05;;
33824;SDS011;20127;48.962;8.342;2024-02-14T02:40:32;5.18;;;4.03;;
33824;SDS011;20127;48.962;8.342;2024-02-14T02:41:46;8.23;;;4.15;;
33824;SDS011;20127;48.962;8.342;2024-02-14T02:43:02;7.72;;;4.00;;
33824;SDS011;20127;48.962;8.342;2024-02-14T02:44:16;5.63;;;4.22;;
33824;SDS011;20127;48.962;8.342;2024-02-14T02:45:30;5.43;;;3.85;;
33824;SDS011;20127;48.962;8.342;2024-02-14T02:46:44;11.38;;;5.28;;
33824;SDS011;20127;48.962;8.342;2024-02-14T02:47:58;6.05;;;3.65;;
33824;SDS011;20127;48.962;8.342;2024-02-14T02:49:13;9.45;;;4.20;;
33824;SDS011;20127;48.962;8.342;2024-02-14T02:50:28;5.68;;;3.67;;
33824;SDS011;20127;48.962;8.342;2024-02-14T02:51:42;9.43;;;4.07;;
33824;SDS011;20127;48.962;8.342;2024-02-14T02:52:56;5.50;;;4.10;;
33824;SDS011;20127;48.962;8.342;2024-02-14T02:54:10;8.75;;;5.45;;
33824;SDS011;20127;48.962;8.342;2024-02-14T02:55:26;5.05;;;3.88;;
33824;SDS011;20127;48.962;8.342;2024-02-14T02:56:39;12.05;;;5.05;;
33824;SDS011;20127;48.962;8.342;2024-02-14T02:57:53;5.18;;;3.80;;
33824;SDS011;20127;48.962;8.342;2024-02-14T02:59:08;6.93;;;3.92;;
33824;SDS011;20127;48.962;8.342;2024-02-14T03:00:22;4.88;;;3.47;;
33824;SDS011;20127;48.962;8.342;2024-02-14T03:01:36;9.02;;;4.63;;
33824;SDS011;20127;48.962;8.342;2024-02-14T03:02:50;7.72;;;3.63;;
33824;SDS011;20127;48.962;8.342;2024-02-14T03:04:04;6.70;;;3.78;;
33824;SDS011;20127;48.962;8.342;2024-02-14T03:05:18;4.10;;;3.25;;
33824;SDS011;20127;48.962;8.342;2024-02-14T03:06:36;4.18;;;3.35;;
33824;SDS011;20127;48.962;8.342;2024-02-14T03:07:49;4.28;;;3.25;;
33824;SDS011;20127;48.962;8.342;2024-02-14T03:09:05;5.57;;;3.65;;
33824;SDS011;20127;48.962;8.342;2024-02-14T03:10:20;6.30;;;3.08;;
33824;SDS011;20127;48.962;8.342;2024-02-14T03:11:36;6.28;;;3.53;;
33824;SDS011;20127;48.962;8.342;2024-02-14T03:12:50;4.43;;;4.03;;
33824;SDS011;20127;48.962;8.342;2024-02-14T03:14:05;4.57;;;3.08;;
33824;SDS011;20127;48.962;8.342;2024-02-14T03:15:20;5.78;;;3.42;;
33824;SDS011;20127;48.962;8.342;2024-02-14T03:16:38;4.65;;;2.80;;
33824;SDS011;20127;48.962;8.342;2024-02-14T03:17:52;6.53;;;3.97;;
33824;SDS011;20127;48.962;8.342;2024-02-14T03:19:06;4.53;;;2.97;;
33824;SDS011;20127;48.962;8.342;2024-02-14T03:20:19;3.90;;;3.50;;
33824;SDS011;20127;48.962;8.342;2024-02-14T03:21:34;5.60;;;3.05;;
33824;SDS011;20127;48.962;8.342;2024-02-14T03:22:48;4.25;;;3.28;;
33824;SDS011;20127;48.962;8.342;2024-02-14T03:24:03;9.65;;;3.83;;
33824;SDS011;20127;48.962;8.342;2024-02-14T03:25:18;6.57;;;3.15;;
33824;SDS011;20127;48.962;8.342;2024-02-14T03:26:34;6.97;;;3.00;;
33824;SDS011;20127;48.962;8.342;2024-02-14T03:27:49;9.57;;;3.70;;
33824;SDS011;20127;48.962;8.342;2024-02-14T03:29:05;3.58;;;2.90;;
33824;SDS011;20127;48.962;8.342;2024-02-14T03:30:19;4.70;;;2.95;;
33824;SDS011;20127;48.962;8.342;2024-02-14T03:31:35;7.32;;;3.25;;
33824;SDS011;20127;48.962;8.342;2024-02-14T03:32:49;5.70;;;3.72;;
33824;SDS011;20127;48.962;8.342;2024-02-14T03:34:03;4.55;;;2.50;;
33824;SDS011;20127;48.962;8.342;2024-02-14T03:35:17;6.15;;;2.97;;
33824;SDS011;20127;48.962;8.342;2024-02-14T03:36:32;8.57;;;3.78;;
33824;SDS011;20127;48.962;8.342;2024-02-14T03:37:46;5.18;;;3.30;;
33824;SDS011;20127;48.962;8.342;2024-02-14T03:39:01;8.52;;;4.65;;
33824;SDS011;20127;48.962;8.342;2024-02-14T03:40:17;8.50;;;2.75;;
33824;SDS011;20127;48.962;8.342;2024-02-14T03:41:33;3.97;;;2.67;;
33824;SDS011;20127;48.962;8.342;2024-02-14T03:42:46;4.55;;;2.58;;
33824;SDS011;20127;48.962;8.342;2024-02-14T03:44:02;4.32;;;2.95;;
33824;SDS011;20127;48.962;8.342;2024-02-14T03:45:16;3.60;;;2.40;;
33824;SDS011;20127;48.962;8.342;2024-02-14T03:46:31;8.80;;;4.90;;
33824;SDS011;20127;48.962;8.342;2024-02-14T03:47:44;3.30;;;2.28;;
33824;SDS011;20127;48.962;8.342;2024-02-14T03:48:59;3.53;;;2.55;;
33824;SDS011;20127;48.962;8.342;2024-02-14T03:50:12;5.88;;;2.95;;
33824;SDS011;20127;48.962;8.342;2024-02-14T03:51:28;5.55;;;3.15;;
33824;SDS011;20127;48.962;8.342;2024-02-14T03:52:42;8.30;;;3.38;;
33824;SDS011;20127;48.962;8.342;2024-02-14T03:53:56;12.65;;;2.28;;
33824;SDS011;20127;48.962;8.342;2024-02-14T03:55:10;7.38;;;3.53;;
33824;SDS011;20127;48.962;8.342;2024-02-14T03:56:26;5.13;;;2.45;;
33824;SDS011;20127;48.962;8.342;2024-02-14T03:57:39;9.65;;;2.58;;
33824;SDS011;20127;48.962;8.342;2024-02-14T03:58:56;4.57;;;2.72;;
33824;SDS011;20127;48.962;8.342;2024-02-14T04:00:10;5.13;;;2.05;;
33824;SDS011;20127;48.962;8.342;2024-02-14T04:01:25;7.80;;;2.42;;
33824;SDS011;20127;48.962;8.342;2024-02-14T04:02:40;2.97;;;2.17;;
33824;SDS011;20127;48.962;8.342;2024-02-14T04:03:54;7.40;;;2.45;;
33824;SDS011;20127;48.962;8.342;2024-02-14T04:05:08;4.15;;;1.77;;
33824;SDS011;20127;48.962;8.342;2024-02-14T04:06:22;3.88;;;2.22;;
33824;SDS011;20127;48.962;8.342;2024-02-14T04:07:36;2.00;;;1.75;;
33824;SDS011;20127;48.962;8.342;2024-02-14T04:08:50;4.05;;;1.83;;
33824;SDS011;20127;48.962;8.342;2024-02-14T04:10:04;6.72;;;2.08;;
33824;SDS011;20127;48.962;8.342;2024-02-14T04:11:19;3.60;;;2.25;;
33824;SDS011;20127;48.962;8.342;2024-02-14T04:12:33;2.70;;;2.05;;
33824;SDS011;20127;48.962;8.342;2024-02-14T04:13:47;10.38;;;3.50;;
33824;SDS011;20127;48.962;8.342;2024-02-14T04:15:02;6.30;;;3.10;;
33824;SDS011;20127;48.962;8.342;2024-02-14T04:16:18;3.47;;;2.00;;
33824;SDS011;20127;48.962;8.342;2024-02-14T04:17:32;10.02;;;2.17;;
33824;SDS011;20127;48.962;8.342;2024-02-14T04:18:46;3.55;;;1.60;;
33824;SDS011;20127;48.962;8.342;2024-02-14T04:20:00;4.78;;;3.60;;
33824;SDS011;20127;48.962;8.342;2024-02-14T04:21:14;6.63;;;2.92;;
33824;SDS011;20127;48.962;8.342;2024-02-14T04:22:28;3.53;;;1.50;;
33824;SDS011;20127;48.962;8.342;2024-02-14T04:23:42;2.42;;;1.48;;
33824;SDS011;20127;48.962;8.342;2024-02-14T04:24:56;1.75;;;1.50;;
33824;SDS011;20127;48.962;8.342;2024-02-14T04:26:10;3.00;;;2.42;;
33824;SDS011;20127;48.962;8.342;2024-02-14T04:27:32;3.05;;;1.73;;
33824;SDS011;20127;48.962;8.342;2024-02-14T04:28:46;5.57;;;1.50;;
33824;SDS011;20127;48.962;8.342;2024-02-14T04:30:00;3.85;;;1.75;;
33824;SDS011;20127;48.962;8.342;2024-02-14T04:31:16;7.90;;;2.92;;
33824;SDS011;20127;48.962;8.342;2024-02-14T04:32:30;5.85;;;1.88;;
33824;SDS011;20127;48.962;8.342;2024-02-14T04:33:44;5.72;;;2.50;;
33824;SDS011;20127;48.962;8.342;2024-02-14T04:35:02;3.53;;;1.73;;
33824;SDS011;20127;48.962;8.342;2024-02-14T04:36:17;3.72;;;1.85;;
33824;SDS011;20127;48.962;8.342;2024-02-14T04:37:32;3.00;;;1.58;;
33824;SDS011;20127;48.962;8.342;2024-02-14T04:38:46;3.80;;;1.40;;
33824;SDS011;20127;48.962;8.342;2024-02-14T04:40:01;7.35;;;1.83;;
33824;SDS011;20127;48.962;8.342;2024-02-14T04:41:16;7.30;;;1.67;;
33824;SDS011;20127;48.962;8.342;2024-02-14T04:42:30;3.97;;;1.60;;
33824;SDS011;20127;48.962;8.342;2024-02-14T04:43:44;8.23;;;1.90;;
33824;SDS011;20127;48.962;8.342;2024-02-14T04:44:58;3.70;;;2.08;;
33824;SDS011;20127;48.962;8.342;2024-02-14T04:46:12;3.50;;;1.83;;
33824;SDS011;20127;48.962;8.342;2024-02-14T04:47:27;3.08;;;1.95;;
33824;SDS011;20127;48.962;8.342;2024-02-14T04:48:42;3.95;;;1.85;;
33824;SDS011;20127;48.962;8.342;2024-02-14T04:49:57;9.45;;;1.88;;
33824;SDS011;20127;48.962;8.342;2024-02-14T04:51:10;6.22;;;2.13;;
33824;SDS011;20127;48.962;8.342;2024-02-14T04:52:25;5.15;;;1.40;;
33824;SDS011;20127;48.962;8.342;2024-02-14T04:53:39;2.70;;;1.63;;
33824;SDS011;20127;48.962;8.342;2024-02-14T04:54:54;2.28;;;1.65;;
33824;SDS011;20127;48.962;8.342;2024-02-14T04:56:07;4.45;;;2.08;;
33824;SDS011;20127;48.962;8.342;2024-02-14T04:57:22;2.15;;;1.30;;
33824;SDS011;20127;48.962;8.342;2024-02-14T04:58:35;6.32;;;1.60;;
33824;SDS011;20127;48.962;8.342;2024-02-14T04:59:50;7.97;;;2.58;;
33824;SDS011;20127;48.962;8.342;2024-02-14T05:01:03;4.25;;;1.73;;
33824;SDS011;20127;48.962;8.342;2024-02-14T05:02:20;4.22;;;2.03;;
33824;SDS011;20127;48.962;8.342;2024-02-14T05:03:35;7.15;;;1.50;;
33824;SDS011;20127;48.962;8.342;2024-02-14T05:04:50;3.83;;;1.83;;
33824;SDS011;20127;48.962;8.342;2024-02-14T05:06:04;3.78;;;1.33;;
33824;SDS011;20127;48.962;8.342;2024-02-14T05:07:19;2.22;;;1.30;;
33824;SDS011;20127;48.962;8.342;2024-02-14T05:08:32;1.75;;;1.63;;
33824;SDS011;20127;48.962;8.342;2024-02-14T05:09:47;5.25;;;1.60;;
33824;SDS011;20127;48.962;8.342;2024-02-14T05:11:03;2.40;;;2.20;;
33824;SDS011;20127;48.962;8.342;2024-02-14T05:12:18;2.10;;;1.48;;
33824;SDS011;20127;48.962;8.342;2024-02-14T05:13:32;3.88;;;1.70;;
33824;SDS011;20127;48.962;8.342;2024-02-14T05:14:47;6.13;;;1.50;;
33824;SDS011;20127;48.962;8.342;2024-02-14T05:16:02;3.10;;;1.10;;
33824;SDS011;20127;48.962;8.342;2024-02-14T05:17:16;6.10;;;1.90;;
33824;SDS011;20127;48.962;8.342;2024-02-14T05:18:30;5.45;;;1.58;;
33824;SDS011;20127;48.962;8.342;2024-02-14T05:19:46;2.35;;;1.55;;
33824;SDS011;20127;48.962;8.342;2024-02-14T05:20:59;2.60;;;1.17;;
33824;SDS011;20127;48.962;8.342;2024-02-14T05:22:13;3.42;;;1.90;;
33824;SDS011;20127;48.962;8.342;2024-02-14T05:23:27;4.25;;;1.75;;
33824;SDS011;20127;48.962;8.342;2024-02-14T05:24:41;4.07;;;1.67;;
33824;SDS011;20127;48.962;8.342;2024-02-14T05:25:55;2.45;;;1.95;;
33824;SDS011;20127;48.962;8.342;2024-02-14T05:27:09;4.53;;;1.70;;
33824;SDS011;20127;48.962;8.342;2024-02-14T05:28:23;6.00;;;1.73;;
33824;SDS011;20127;48.962;8.342;2024-02-14T05:29:37;3.13;;;1.92;;
33824;SDS011;20127;48.962;8.342;2024-02-14T05:30:51;5.43;;;1.48;;
33824;SDS011;20127;48.962;8.342;2024-02-14T05:32:06;3.70;;;2.10;;
33824;SDS011;20127;48.962;8.342;2024-02-14T05:33:22;1.60;;;1.50;;
33824;SDS011;20127;48.962;8.342;2024-02-14T05:34:37;3.85;;;1.88;;
33824;SDS011;20127;48.962;8.342;2024-02-14T05:35:51;4.18;;;2.00;;
33824;SDS011;20127;48.962;8.342;2024-02-14T05:37:06;5.60;;;1.65;;
33824;SDS011;20127;48.962;8.342;2024-02-14T05:38:21;4.45;;;2.13;;
33824;SDS011;20127;48.962;8.342;2024-02-14T05:39:35;7.90;;;1.92;;
33824;SDS011;20127;48.962;8.342;2024-02-14T05:40:49;5.45;;;1.70;;
33824;SDS011;20127;48.962;8.342;2024-02-14T05:42:03;5.07;;;2.20;;
33824;SDS011;20127;48.962;8.342;2024-02-14T05:43:18;4.60;;;1.75;;
33824;SDS011;20127;48.962;8.342;2024-02-14T05:44:33;2.38;;;1.70;;
33824;SDS011;20127;48.962;8.342;2024-02-14T05:45:47;2.60;;;2.10;;
33824;SDS011;20127;48.962;8.342;2024-02-14T05:47:01;3.85;;;2.20;;
33824;SDS011;20127;48.962;8.342;2024-02-14T05:48:15;4.60;;;2.35;;
33824;SDS011;20127;48.962;8.342;2024-02-14T05:49:29;2.88;;;2.08;;
33824;SDS011;20127;48.962;8.342;2024-02-14T05:50:43;3.90;;;1.88;;
33824;SDS011;20127;48.962;8.342;2024-02-14T05:51:59;4.97;;;2.08;;
33824;SDS011;20127;48.962;8.342;2024-02-14T05:53:12;3.28;;;2.10;;
33824;SDS011;20127;48.962;8.342;2024-02-14T05:54:27;5.57;;;3.10;;
33824;SDS011;20127;48.962;8.342;2024-02-14T05:55:40;6.85;;;2.15;;
33824;SDS011;20127;48.962;8.342;2024-02-14T05:56:55;4.07;;;2.70;;
33824;SDS011;20127;48.962;8.342;2024-02-14T05:58:09;2.85;;;1.55;;
33824;SDS011;20127;48.962;8.342;2024-02-14T05:59:24;3.65;;;1.52;;
33824;SDS011;20127;48.962;8.342;2024-02-14T06:00:38;2.42;;;2.00;;
33824;SDS011;20127;48.962;8.342;2024-02-14T06:01:52;3.30;;;1.55;;
33824;SDS011;20127;48.962;8.342;2024-02-14T06:03:06;2.78;;;1.60;;
33824;SDS011;20127;48.962;8.342;2024-02-14T06:04:21;4.43;;;2.17;;
33824;SDS011;20127;48.962;8.342;2024-02-14T06:05:34;5.43;;;1.88;;
33824;SDS011;20127;48.962;8.342;2024-02-14T06:06:49;2.90;;;1.83;;
33824;SDS011;20127;48.962;8.342;2024-02-14T06:08:04;3.33;;;2.90;;
33824;SDS011;20127;48.962;8.342;2024-02-14T06:09:18;3.58;;;1.55;;
33824;SDS011;20127;48.962;8.342;2024-02-14T06:10:32;7.00;;;2.55;;
33824;SDS011;20127;48.962;8.342;2024-02-14T06:11:47;7.25;;;1.88;;
33824;SDS011;20127;48.962;8.342;2024-02-14T06:13:00;2.58;;;2.03;;
33824;SDS011;20127;48.962;8.342;2024-02-14T06:14:15;2.58;;;2.00;;
33824;SDS011;20127;48.962;8.342;2024-02-14T06:15:29;3.85;;;1.60;;
33824;SDS011;20127;48.962;8.342;2024-02-14T06:16:43;3.33;;;2.03;;
33824;SDS011;20127;48.962;8.342;2024-02-14T06:17:57;3.90;;;2.08;;
33824;SDS011;20127;48.962;8.342;2024-02-14T06:19:11;3.28;;;1.80;;
33824;SDS011;20127;48.962;8.342;2024-02-14T06:20:25;4.25;;;2.17;;
33824;SDS011;20127;48.962;8.342;2024-02-14T06:21:40;5.43;;;2.42;;
33824;SDS011;20127;48.962;8.342;2024-02-14T06:22:53;9.95;;;2.97;;
33824;SDS011;20127;48.962;8.342;2024-02-14T06:24:09;5.00;;;2.30;;
33824;SDS011;20127;48.962;8.342;2024-02-14T06:25:26;4.63;;;2.78;;
33824;SDS011;20127;48.962;8.342;2024-02-14T06:26:40;6.80;;;2.38;;
33824;SDS011;20127;48.962;8.342;2024-02-14T06:27:54;4.90;;;2.60;;
33824;SDS011;20127;48.962;8.342;2024-02-14T06:29:08;4.63;;;2.00;;
33824;SDS011;20127;48.962;8.342;2024-02-14T06:30:22;3.78;;;1.98;;
33824;SDS011;20127;48.962;8.342;2024-02-14T06:31:36;2.70;;;2.35;;
33824;SDS011;20127;48.962;8.342;2024-02-14T06:32:49;2.38;;;1.90;;
33824;SDS011;20127;48.962;8.342;2024-02-14T06:34:04;4.68;;;2.28;;
33824;SDS011;20127;48.962;8.342;2024-02-14T06:35:20;4.97;;;2.28;;
33824;SDS011;20127;48.962;8.342;2024-02-14T06:36:34;8.20;;;2.03;;
33824;SDS011;20127;48.962;8.342;2024-02-14T06:37:48;3.28;;;1.40;;
33824;SDS011;20127;48.962;8.342;2024-02-14T06:39:03;7.53;;;4.18;;
33824;SDS011;20127;48.962;8.342;2024-02-14T06:40:18;4.95;;;2.25;;
33824;SDS011;20127;48.962;8.342;2024-02-14T06:41:33;4.07;;;1.83;;
33824;SDS011;20127;48.962;8.342;2024-02-14T06:42:46;4.22;;;2.53;;
33824;SDS011;20127;48.962;8.342;2024-02-14T06:44:03;2.83;;;2.03;;
33824;SDS011;20127;48.962;8.342;2024-02-14T06:45:17;3.72;;;1.98;;
33824;SDS011;20127;48.962;8.342;2024-02-14T06:46:31;3.47;;;1.67;;
33824;SDS011;20127;48.962;8.342;2024-02-14T06:47:45;3.92;;;2.10;;
33824;SDS011;20127;48.962;8.342;2024-02-14T06:48:59;3.67;;;2.50;;
33824;SDS011;20127;48.962;8.342;2024-02-14T06:50:13;3.75;;;1.92;;
33824;SDS011;20127;48.962;8.342;2024-02-14T06:51:27;4.18;;;1.83;;
33824;SDS011;20127;48.962;8.342;2024-02-14T06:52:41;3.42;;;2.25;;
33824;SDS011;20127;48.962;8.342;2024-02-14T06:53:55;4.10;;;3.58;;
33824;SDS011;20127;48.962;8.342;2024-02-14T06:55:09;3.67;;;1.95;;
33824;SDS011;20127;48.962;8.342;2024-02-14T06:56:24;2.95;;;2.17;;
33824;SDS011;20127;48.962;8.342;2024-02-14T06:57:38;4.07;;;1.98;;
33824;SDS011;20127;48.962;8.342;2024-02-14T06:58:53;3.90;;;2.55;;
33824;SDS011;20127;48.962;8.342;2024-02-14T07:00:13;4.95;;;1.85;;
33824;SDS011;20127;48.962;8.342;2024-02-14T07:01:28;3.53;;;2.10;;
33824;SDS011;20127;48.962;8.342;2024-02-14T07:02:41;3.63;;;1.88;;
33824;SDS011;20127;48.962;8.342;2024-02-14T07:03:56;3.03;;;1.60;;
33824;SDS011;20127;48.962;8.342;2024-02-14T07:05:09;4.80;;;2.03;;
33824;SDS011;20127;48.962;8.342;2024-02-14T07:06:25;4.25;;;2.33;;
33824;SDS011;20127;48.962;8.342;2024-02-14T07:07:39;6.60;;;2.55;;
33824;SDS011;20127;48.962;8.342;2024-02-14T07:08:53;6.70;;;2.78;;
33824;SDS011;20127;48.962;8.342;2024-02-14T07:10:07;6.45;;;2.85;;
33824;SDS011;20127;48.962;8.342;2024-02-14T07:11:22;4.68;;;2.47;;
33824;SDS011;20127;48.962;8.342;2024-02-14T07:12:38;11.18;;;2.60;;
33824;SDS011;20127;48.962;8.342;2024-02-14T07:13:53;5.30;;;1.83;;
33824;SDS011;20127;48.962;8.342;2024-02-14T07:15:06;5.78;;;2.63;;
33824;SDS011;20127;48.962;8.342;2024-02-14T07:16:21;3.50;;;2.78;;
33824;SDS011;20127;48.962;8.342;2024-02-14T07:17:34;3.10;;;2.15;;
33824;SDS011;20127;48.962;8.342;2024-02-14T07:18:49;3.67;;;2.90;;
33824;SDS011;20127;48.962;8.342;2024-02-14T07:20:02;2.72;;;1.77;;
33824;SDS011;20127;48.962;8.342;2024-02-14T07:21:17;4.38;;;1.98;;
33824;SDS011;20127;48.962;8.342;2024-02-14T07:22:31;4.07;;;2.08;;
33824;SDS011;20127;48.962;8.342;2024-02-14T07:23:46;3.50;;;2.13;;
33824;SDS011;20127;48.962;8.342;2024-02-14T07:25:00;5.93;;;3.53;;
33824;SDS011;20127;48.962;8.342;2024-02-14T07:26:15;5.45;;;2.67;;
33824;SDS011;20127;48.962;8.342;2024-02-14T07:27:28;5.88;;;3.10;;
33824;SDS011;20127;48.962;8.342;2024-02-14T07:28:44;4.05;;;2.80;;